createdAt,value
2016-11-17T00:00:05.502Z,99770
2016-11-17T00:02:06.857Z,99761
2016-11-17T00:04:05.611Z,99762
2016-11-17T00:06:05.686Z,99736
2016-11-17T00:08:05.706Z,99753
2016-11-17T00:10:07.054Z,99751
2016-11-17T00:12:07.133Z,99744
2016-11-17T00:14:05.805Z,99734
2016-11-17T00:16:07.225Z,99735
2016-11-17T00:18:07.262Z,99732
2016-11-17T00:20:07.207Z,99737
2016-11-17T00:22:05.985Z,99729
2016-11-17T00:24:07.443Z,99732
2016-11-17T00:26:07.477Z,99733
2016-11-17T00:28:06.201Z,99727
2016-11-17T00:30:07.560Z,99726
2016-11-17T00:32:06.258Z,99727
2016-11-17T00:34:07.605Z,99722
2016-11-17T00:36:06.235Z,99723
2016-11-17T00:38:07.635Z,99727
2016-11-17T00:40:06.293Z,99731
2016-11-17T00:42:07.741Z,99729
2016-11-17T00:44:07.663Z,99739
2016-11-17T00:46:06.351Z,99721
2016-11-17T00:48:06.426Z,99718
2016-11-17T00:50:07.799Z,99721
2016-11-17T00:52:06.510Z,99726
2016-11-17T00:54:07.883Z,99717
2016-11-17T00:56:07.961Z,99717
2016-11-17T00:58:08.071Z,99705
2016-11-17T01:00:06.722Z,99711
2016-11-17T01:02:08.123Z,99707
2016-11-17T01:04:08.134Z,99710
2016-11-17T01:06:06.957Z,99715
2016-11-17T01:08:08.241Z,99706
2016-11-17T01:10:06.919Z,99705
2016-11-17T01:12:06.987Z,99702
2016-11-17T01:14:08.397Z,99703
2016-11-17T01:16:08.449Z,99708
2016-11-17T01:18:07.258Z,99702
2016-11-17T01:20:08.646Z,99698
2016-11-17T01:22:08.706Z,99689
2016-11-17T01:24:07.481Z,99683
2016-11-17T01:26:07.546Z,99678
2016-11-17T01:28:07.624Z,99681
2016-11-17T01:30:09.026Z,99685
2016-11-17T01:32:09.015Z,99680
2016-11-17T01:34:07.729Z,99669
2016-11-17T01:36:09.223Z,99673
2016-11-17T01:38:07.898Z,99680
2016-11-17T01:40:07.935Z,99675
2016-11-17T01:42:09.396Z,99670
2016-11-17T01:44:08.005Z,99664
2016-11-17T01:46:08.070Z,99663
2016-11-17T01:48:09.450Z,99665
2016-11-17T01:50:09.492Z,99669
2016-11-17T01:52:09.451Z,99658
2016-11-17T01:54:09.557Z,99655
2016-11-17T01:56:08.294Z,99649
2016-11-17T01:58:08.384Z,99646
2016-11-17T02:00:09.833Z,99644
2016-11-17T02:02:08.544Z,99637
2016-11-17T02:04:09.956Z,99630
2016-11-17T02:06:10.077Z,99628
2016-11-17T02:08:10.086Z,99620
2016-11-17T02:10:08.824Z,99622
2016-11-17T02:12:08.872Z,99615
2016-11-17T02:14:08.879Z,99612
2016-11-17T02:16:10.305Z,99610
2016-11-17T02:18:08.999Z,99604
2016-11-17T02:20:10.311Z,99607
2016-11-17T02:22:09.089Z,99604
2016-11-17T02:24:10.458Z,99603
2016-11-17T02:26:09.143Z,99600
2016-11-17T02:28:09.097Z,99599
2016-11-17T02:30:09.166Z,99591
2016-11-17T02:32:09.183Z,99594
2016-11-17T02:34:09.235Z,99583
2016-11-17T02:36:10.632Z,99582
2016-11-17T02:38:10.680Z,99575
2016-11-17T02:40:10.649Z,99567
2016-11-17T02:42:09.302Z,99570
2016-11-17T02:44:10.750Z,99577
2016-11-17T02:46:10.784Z,99565
2016-11-17T02:48:10.904Z,99560
2016-11-17T02:50:10.814Z,99566
2016-11-17T02:52:10.857Z,99561
2016-11-17T02:54:11.003Z,99563
2016-11-17T02:56:11.035Z,99550
2016-11-17T02:58:11.125Z,99545
2016-11-17T03:00:09.831Z,99552
2016-11-17T03:02:09.801Z,99540
2016-11-17T03:04:10.768Z,99539
2016-11-17T03:06:10.951Z,99539
2016-11-17T03:08:11.561Z,99531
2016-11-17T03:10:10.334Z,99525
2016-11-17T03:12:11.665Z,99521
2016-11-17T03:14:11.564Z,99513
2016-11-17T03:16:11.593Z,99507
2016-11-17T03:18:11.633Z,99516
2016-11-17T03:20:11.600Z,99506
2016-11-17T03:22:11.690Z,99496
2016-11-17T03:24:10.332Z,99488
2016-11-17T03:26:11.770Z,99497
2016-11-17T03:28:11.897Z,99507
2016-11-17T03:30:12.732Z,99495
2016-11-17T03:32:12.154Z,99492
2016-11-17T03:34:12.034Z,99492
2016-11-17T03:36:12.937Z,99480
2016-11-17T03:38:12.119Z,99478
2016-11-17T03:40:10.757Z,99475
2016-11-17T03:42:10.844Z,99477
2016-11-17T03:44:12.269Z,99475
2016-11-17T03:46:12.214Z,99476
2016-11-17T03:48:12.283Z,99470
2016-11-17T03:50:12.371Z,99460
2016-11-17T03:52:11.089Z,99460
2016-11-17T03:54:12.476Z,99459
2016-11-17T03:56:11.198Z,99465
2016-11-17T03:58:11.232Z,99457
2016-11-17T04:00:12.706Z,99454
2016-11-17T04:02:12.716Z,99451
2016-11-17T04:04:12.742Z,99449
2016-11-17T04:06:12.851Z,99440
2016-11-17T04:08:11.512Z,99434
2016-11-17T04:10:12.953Z,99432
2016-11-17T04:12:11.591Z,99426
2016-11-17T04:14:12.983Z,99426
2016-11-17T04:16:13.123Z,99425
2016-11-17T04:18:11.751Z,99424
2016-11-17T04:20:11.850Z,99419
2016-11-17T04:22:11.866Z,99421
2016-11-17T04:24:11.953Z,99422
2016-11-17T04:26:11.915Z,99421
2016-11-17T04:28:12.009Z,99417
2016-11-17T04:30:13.407Z,99422
2016-11-17T04:32:12.102Z,99410
2016-11-17T04:34:13.547Z,99408
2016-11-17T04:36:12.774Z,99416
2016-11-17T04:38:12.314Z,99415
2016-11-17T04:40:12.285Z,99412
2016-11-17T04:42:12.337Z,99410
2016-11-17T04:44:12.376Z,99397
2016-11-17T04:46:13.804Z,99419
2016-11-17T04:48:13.849Z,99407
2016-11-17T04:50:12.517Z,99396
2016-11-17T04:52:12.528Z,99397
2016-11-17T04:54:12.624Z,99390
2016-11-17T04:56:13.916Z,99398
2016-11-17T04:58:14.048Z,99395
2016-11-17T05:00:12.739Z,99395
2016-11-17T05:02:12.792Z,99388
2016-11-17T05:04:12.815Z,99390
2016-11-17T05:06:14.216Z,99387
2016-11-17T05:08:14.339Z,99386
2016-11-17T05:10:14.361Z,99377
2016-11-17T05:12:13.075Z,99388
2016-11-17T05:14:13.161Z,99384
2016-11-17T05:16:13.187Z,99384
2016-11-17T05:18:14.645Z,99384
2016-11-17T05:20:14.692Z,99404
2016-11-17T05:22:14.773Z,99405
2016-11-17T05:24:13.546Z,99398
2016-11-17T05:26:14.826Z,99399
2016-11-17T05:28:14.908Z,99388
2016-11-17T05:30:14.992Z,99391
2016-11-17T05:32:15.096Z,99392
2016-11-17T05:34:13.788Z,99396
2016-11-17T05:36:13.763Z,99398
2016-11-17T05:38:13.753Z,99399
2016-11-17T05:40:13.914Z,99398
2016-11-17T05:42:15.323Z,99411
2016-11-17T05:44:13.988Z,99410
2016-11-17T05:46:15.377Z,99404
2016-11-17T05:48:14.323Z,99404
2016-11-17T05:50:14.034Z,99412
2016-11-17T05:52:15.489Z,99407
2016-11-17T05:54:14.184Z,99421
2016-11-17T05:56:15.497Z,99414
2016-11-17T05:58:15.474Z,99410
2016-11-17T06:00:14.131Z,99411
2016-11-17T06:02:14.208Z,99415
2016-11-17T06:04:14.239Z,99428
2016-11-17T06:06:14.308Z,99420
2016-11-17T06:08:15.737Z,99416
2016-11-17T08:10:12.127Z,99417
2016-11-17T08:11:32.193Z,99416
2016-11-17T08:13:30.141Z,99408
2016-11-17T08:15:31.500Z,99397
2016-11-17T08:17:32.134Z,99400
2016-11-17T08:19:30.143Z,99402
2016-11-17T08:21:31.652Z,99397
2016-11-17T08:25:32.754Z,99415
2016-11-17T08:27:30.463Z,99412
2016-11-17T08:29:30.514Z,99403
2016-11-17T08:31:33.110Z,99392
2016-11-17T08:33:30.607Z,99399
2016-11-17T08:35:32.083Z,99403
2016-11-17T08:37:30.748Z,99408
2016-11-17T08:39:30.738Z,99403
2016-11-17T08:41:32.202Z,99401
2016-11-17T08:43:32.212Z,99401
2016-11-17T08:45:32.295Z,99391
2016-11-17T08:47:32.378Z,99384
2016-11-17T08:49:34.334Z,99397
2016-11-17T08:51:31.047Z,99399
2016-11-17T08:53:32.521Z,99396
2016-11-17T08:55:31.137Z,99389
2016-11-17T08:57:31.200Z,99389
2016-11-17T08:59:31.869Z,99383
2016-11-17T09:01:32.675Z,99381
2016-11-17T09:03:32.711Z,99385
2016-11-17T09:05:32.742Z,99379
2016-11-17T09:07:33.431Z,99372
2016-11-17T09:09:32.875Z,99382
2016-11-17T09:11:31.567Z,99374
2016-11-17T09:13:33.044Z,99376
2016-11-17T09:15:33.085Z,99374
2016-11-17T09:17:33.197Z,99382
2016-11-17T09:19:32.644Z,99383
2016-11-17T09:21:34.299Z,99381
2016-11-17T09:23:33.512Z,99389
2016-11-17T09:25:33.464Z,99391
2016-11-17T09:27:32.215Z,99382
2016-11-17T09:29:32.305Z,99390
2016-11-17T09:31:32.361Z,99391
2016-11-17T09:33:33.675Z,99388
2016-11-17T09:35:32.376Z,99394
2016-11-17T09:37:34.435Z,99397
2016-11-17T09:39:33.021Z,99393
2016-11-17T09:41:33.710Z,99393
2016-11-17T09:43:32.584Z,99395
2016-11-17T09:45:34.586Z,99404
2016-11-17T09:47:34.240Z,99402
2016-11-17T09:49:32.855Z,99401
2016-11-17T09:51:33.519Z,99408
2016-11-17T09:53:34.298Z,99401
2016-11-17T09:55:34.378Z,99394
2016-11-17T09:57:33.617Z,99396
2016-11-17T09:59:35.602Z,99397
2016-11-17T10:01:35.687Z,99396
2016-11-17T10:03:33.109Z,99411
2016-11-17T10:05:35.193Z,99407
2016-11-17T10:07:34.509Z,99411
2016-11-17T10:09:34.641Z,99401
2016-11-17T10:11:35.384Z,99395
2016-11-17T10:13:34.687Z,99397
2016-11-17T10:15:34.712Z,99390
2016-11-17T10:17:33.461Z,99396
2016-11-17T10:19:34.157Z,99383
2016-11-17T10:21:33.577Z,99376
2016-11-17T10:23:34.139Z,99365
2016-11-17T10:25:35.849Z,99362
2016-11-17T10:27:33.770Z,99348
2016-11-17T10:29:35.106Z,99328
2016-11-17T10:31:35.080Z,99333
2016-11-17T10:33:36.792Z,99319
2016-11-17T10:35:35.381Z,99336
2016-11-17T10:37:36.771Z,99329
2016-11-17T10:39:36.378Z,99318
2016-11-17T10:41:35.437Z,99331
2016-11-17T10:43:34.740Z,99338
2016-11-17T10:45:38.330Z,99318
2016-11-17T10:47:35.549Z,99323
2016-11-17T10:49:36.111Z,99312
2016-11-17T10:51:36.341Z,99310
2016-11-17T10:53:36.783Z,99293
2016-11-17T10:55:35.091Z,99305
2016-11-17T10:57:36.867Z,99293
2016-11-17T10:59:35.237Z,99297
2016-11-17T11:01:35.887Z,99303
2016-11-17T11:03:35.268Z,99290
2016-11-17T11:05:36.505Z,99307
2016-11-17T11:07:35.960Z,99295
2016-11-17T11:09:35.967Z,99297
2016-11-17T11:11:34.832Z,99280
2016-11-17T11:13:34.869Z,99280
2016-11-17T11:15:36.735Z,99279
2016-11-17T11:17:35.547Z,99276
2016-11-17T11:19:35.458Z,99286
2016-11-17T11:21:36.257Z,99283
2016-11-17T11:23:36.318Z,99295
2016-11-17T11:25:35.714Z,99268
2016-11-17T11:27:35.677Z,99265
2016-11-17T11:29:35.699Z,99283
2016-11-17T11:31:37.162Z,99264
2016-11-17T11:33:37.114Z,99267
2016-11-17T11:35:37.406Z,99261
2016-11-17T11:37:37.413Z,99254
2016-11-17T11:39:35.485Z,99262
2016-11-17T11:41:36.599Z,99255
2016-11-17T11:43:36.914Z,99248
2016-11-17T11:45:36.928Z,99254
2016-11-17T11:47:35.636Z,99248
2016-11-17T11:49:35.583Z,99258
2016-11-17T11:51:36.987Z,99258
2016-11-17T11:53:36.856Z,99263
2016-11-17T11:55:36.321Z,99238
2016-11-17T11:57:35.798Z,99234
2016-11-17T11:59:36.431Z,99232
2016-11-17T12:01:35.932Z,99242
2016-11-17T12:03:37.379Z,99235
2016-11-17T12:05:37.207Z,99251
2016-11-17T12:07:36.161Z,99227
2016-11-17T12:09:38.016Z,99225
2016-11-17T12:11:37.514Z,99225
2016-11-17T12:13:38.467Z,99245
2016-11-17T12:15:38.207Z,99232
2016-11-17T12:17:37.733Z,99232
2016-11-17T12:19:37.707Z,99227
2016-11-17T12:21:36.468Z,99235
2016-11-17T12:23:36.583Z,99230
2016-11-17T12:25:37.949Z,99227
2016-11-17T12:27:37.309Z,99216
2016-11-17T12:29:38.206Z,99223
2016-11-17T12:31:38.317Z,99226
2016-11-17T12:33:36.904Z,99230
2016-11-17T12:35:38.397Z,99229
2016-11-17T12:37:37.163Z,99230
2016-11-17T12:39:39.108Z,99235
2016-11-17T12:41:38.570Z,99232
2016-11-17T12:43:39.330Z,99216
2016-11-17T12:45:38.551Z,99231
2016-11-17T12:47:38.797Z,99231
2016-11-17T12:49:38.866Z,99203
2016-11-17T12:51:37.572Z,99190
2016-11-17T12:53:37.533Z,99185
2016-11-17T12:55:39.014Z,99187
2016-11-17T12:57:39.628Z,99187
2016-11-17T12:59:38.655Z,99188
2016-11-17T13:01:37.830Z,99185
2016-11-17T13:03:39.258Z,99179
2016-11-17T13:05:41.603Z,99177
2016-11-17T13:07:39.315Z,99171
2016-11-17T13:09:37.973Z,99172
2016-11-17T13:11:39.467Z,99160
2016-11-17T13:13:39.996Z,99164
2016-11-17T13:15:38.774Z,99169
2016-11-17T13:17:39.524Z,99156
2016-11-17T13:19:39.649Z,99163
2016-11-17T13:21:39.687Z,99166
2016-11-17T13:23:39.498Z,99155
2016-11-17T13:25:38.438Z,99157
2016-11-17T13:27:39.825Z,99154
2016-11-17T13:29:39.889Z,99166
2016-11-17T13:31:38.531Z,99168
2016-11-17T13:33:42.181Z,99164
2016-11-17T13:35:44.493Z,99154
